Time,TemperatureF,DewpointF,PressureIn,WindDirection,WindDirectionDegrees,WindSpeedMPH,WindSpeedGustMPH,Humidity,HourlyPrecipIn,Conditions,Clouds,dailyrainin,SoftwareType,DateUTC
2013-04-29 00:01:00,51.8,49.8,29.88,SE,140,0.0,1.0,93,0.00,,---,0.00,VWS V14.01,2013-04-29 04:01:00,
2013-04-29 00:16:00,51.6,49.7,29.88,SE,140,0.0,1.0,93,0.00,,---,0.00,VWS V14.01,2013-04-29 04:16:00,
2013-04-29 00:31:00,51.3,49.3,29.88,SE,140,0.0,1.0,93,0.00,,---,0.00,VWS V14.01,2013-04-29 04:31:00,
2013-04-29 00:46:00,51.1,49.2,29.88,SE,140,0.0,1.0,93,0.00,,---,0.00,VWS V14.01,2013-04-29 04:46:00,
2013-04-29 01:01:00,50.8,49.1,29.88,SE,140,0.0,0.0,94,0.00,,---,0.00,VWS V14.01,2013-04-29 05:01:00,
2013-04-29 01:16:00,50.5,48.8,29.88,SE,140,0.0,0.0,94,0.00,,---,0.00,VWS V14.01,2013-04-29 05:16:00,
2013-04-29 01:31:00,50.0,48.3,29.88,SE,140,0.0,0.0,94,0.00,,---,0.00,VWS V14.01,2013-04-29 05:31:00,
2013-04-29 01:46:00,49.8,48.2,29.88,SE,140,0.0,0.0,94,0.00,,---,0.00,VWS V14.01,2013-04-29 05:46:00,
2013-04-29 02:01:00,49.1,47.5,29.88,SE,140,0.0,0.0,94,0.00,,---,0.00,VWS V14.01,2013-04-29 06:01:00,
2013-04-29 02:16:00,48.6,47.0,29.89,SE,140,0.0,0.0,94,0.00,,---,0.00,VWS V14.01,2013-04-29 06:16:00,
2013-04-29 02:31:00,48.2,46.8,29.89,SE,140,0.0,0.0,95,0.00,,---,0.00,VWS V14.01,2013-04-29 06:31:00,
2013-04-29 02:46:00,47.6,46.2,29.88,SE,140,0.0,0.0,95,0.00,,---,0.00,VWS V14.01,2013-04-29 06:46:00,
2013-04-29 03:01:00,47.1,45.7,29.88,SE,140,0.0,0.0,95,0.00,,---,0.00,VWS V14.01,2013-04-29 07:01:00,
2013-04-29 03:16:00,46.4,45.0,29.88,SE,140,0.0,0.0,95,0.00,,---,0.00,VWS V14.01,2013-04-29 07:16:00,
2013-04-29 03:31:00,46.0,44.7,29.88,SE,140,0.0,0.0,95,0.00,,---,0.00,VWS V14.01,2013-04-29 07:31:00,
2013-04-29 03:46:00,45.5,44.2,29.88,SE,140,0.0,0.0,95,0.00,,---,0.00,VWS V14.01,2013-04-29 07:46:00,
2013-04-29 04:01:00,44.9,43.6,29.88,SE,140,0.0,0.0,95,0.00,,---,0.00,VWS V14.01,2013-04-29 08:01:00,
2013-04-29 04:16:00,44.3,43.0,29.88,SE,140,0.0,0.0,95,0.00,,---,0.00,VWS V14.01,2013-04-29 08:16:00,
2013-04-29 04:31:00,44.5,43.4,29.89,SE,140,0.0,0.0,96,0.00,,---,0.00,VWS V14.01,2013-04-29 08:31:00,
2013-04-29 04:46:00,44.4,43.3,29.88,SE,140,0.0,0.0,96,0.00,,---,0.00,VWS V14.01,2013-04-29 08:46:00,
2013-04-29 05:01:00,44.9,43.8,29.89,SE,140,0.0,1.0,96,0.00,,---,0.00,VWS V14.01,2013-04-29 09:01:00,
2013-04-29 05:16:00,45.3,44.2,29.89,SE,140,1.0,2.0,96,0.00,,---,0.00,VWS V14.01,2013-04-29 09:16:00,
2013-04-29 05:31:00,46.0,44.9,29.89,SE,140,2.0,2.0,96,0.00,,---,0.00,VWS V14.01,2013-04-29 09:31:00,
2013-04-29 05:46:00,46.0,44.9,29.90,SE,140,0.0,3.0,96,0.00,,---,0.00,VWS V14.01,2013-04-29 09:46:00,
2013-04-29 06:01:00,46.0,44.9,29.91,SE,140,0.0,2.0,96,0.00,,---,0.00,VWS V14.01,2013-04-29 10:01:00,
2013-04-29 06:16:00,45.8,44.7,29.91,SE,140,0.0,2.0,96,0.00,,---,0.00,VWS V14.01,2013-04-29 10:16:00,
2013-04-29 06:31:00,46.4,45.6,29.92,SE,140,2.0,3.0,97,0.00,,---,0.00,VWS V14.01,2013-04-29 10:31:00,
2013-04-29 06:46:00,46.2,45.4,29.92,SE,140,1.0,5.0,97,0.00,,---,0.00,VWS V14.01,2013-04-29 10:46:00,
2013-04-29 07:01:00,46.0,45.2,29.92,SE,140,3.0,4.0,97,0.00,,---,0.00,VWS V14.01,2013-04-29 11:01:00,
2013-04-29 07:16:00,45.8,45.0,29.93,SE,140,3.0,5.0,97,0.00,,---,0.00,VWS V14.01,2013-04-29 11:16:00,
2013-04-29 07:31:00,45.7,44.9,29.93,SE,140,5.0,5.0,97,0.00,,---,0.00,VWS V14.01,2013-04-29 11:31:00,
2013-04-29 07:46:00,45.9,45.1,29.94,SE,140,2.0,5.0,97,0.00,,---,0.00,VWS V14.01,2013-04-29 11:46:00,
2013-04-29 08:01:00,46.2,45.4,29.94,SE,140,0.0,3.0,97,0.00,,---,0.00,VWS V14.01,2013-04-29 12:01:00,
2013-04-29 08:16:00,46.8,46.0,29.94,SE,140,1.0,4.0,97,0.00,,---,0.00,VWS V14.01,2013-04-29 12:16:00,
2013-04-29 08:31:00,47.5,46.7,29.95,SE,140,2.0,4.0,97,0.00,,---,0.00,VWS V14.01,2013-04-29 12:31:00,
2013-04-29 08:46:00,48.3,47.5,29.96,SE,142,2.0,5.0,97,0.00,,---,0.00,VWS V14.01,2013-04-29 12:46:00,
2013-04-29 09:01:00,49.1,48.3,29.96,SW,223,3.0,5.0,97,0.00,,---,0.00,VWS V14.01,2013-04-29 13:01:00,
2013-04-29 09:16:00,50.2,49.4,29.96,SW,223,2.0,5.0,97,0.00,,---,0.00,VWS V14.01,2013-04-29 13:16:00,
2013-04-29 09:31:00,50.7,49.9,29.95,SW,223,3.0,5.0,97,0.00,,---,0.00,VWS V14.01,2013-04-29 13:31:00,
2013-04-29 09:46:00,52.1,51.3,29.95,SW,232,2.0,5.0,97,0.00,,---,0.00,VWS V14.01,2013-04-29 13:46:00,
2013-04-29 10:01:00,53.1,52.3,29.94,SW,232,1.0,5.0,97,0.00,,---,0.00,VWS V14.01,2013-04-29 14:01:00,
2013-04-29 10:16:00,54.3,53.5,29.95,SW,232,3.0,5.0,97,0.00,,---,0.00,VWS V14.01,2013-04-29 14:16:00,
2013-04-29 10:31:00,55.9,55.1,29.95,SW,217,2.0,7.0,97,0.00,,---,0.00,VWS V14.01,2013-04-29 14:31:00,
2013-04-29 10:46:00,57.7,55.7,29.94,SW,217,2.0,5.0,93,0.00,,---,0.00,VWS V14.01,2013-04-29 14:46:00,
2013-04-29 11:01:00,59.4,55.5,29.94,WSW,237,2.0,7.0,87,0.00,,---,0.00,VWS V14.01,2013-04-29 15:01:00,
2013-04-29 11:16:00,61.2,56.7,29.94,SSW,205,3.0,7.0,85,0.00,,---,0.00,VWS V14.01,2013-04-29 15:16:00,
2013-04-29 11:31:00,62.1,56.2,29.94,SSW,193,5.0,7.0,81,0.00,,---,0.00,VWS V14.01,2013-04-29 15:31:00,
2013-04-29 11:46:00,63.4,56.1,29.94,SW,227,2.0,8.0,77,0.00,,---,0.00,VWS V14.01,2013-04-29 15:46:00,
2013-04-29 12:01:00,64.5,56.4,29.94,SW,234,4.0,11.0,75,0.00,,---,0.00,VWS V14.01,2013-04-29 16:01:00,
2013-04-29 12:16:00,64.2,55.4,29.94,WSW,248,4.0,10.0,73,0.00,,---,0.00,VWS V14.01,2013-04-29 16:16:00,
2013-04-29 12:31:00,63.8,55.0,29.93,WSW,242,6.0,8.0,73,0.00,,---,0.00,VWS V14.01,2013-04-29 16:31:00,
2013-04-29 12:46:00,64.9,54.1,29.93,SW,216,5.0,11.0,68,0.00,,---,0.00,VWS V14.01,2013-04-29 16:46:00,
2013-04-29 13:01:00,66.0,55.2,29.92,SW,215,5.0,12.0,68,0.00,,---,0.00,VWS V14.01,2013-04-29 17:01:00,
2013-04-29 13:16:00,66.0,53.9,29.92,WSW,253,8.0,12.0,65,0.00,,---,0.00,VWS V14.01,2013-04-29 17:16:00,
2013-04-29 13:31:00,66.6,53.2,29.92,SW,229,3.0,13.0,62,0.00,,---,0.00,VWS V14.01,2013-04-29 17:31:00,
2013-04-29 13:46:00,67.3,53.8,29.92,South,172,6.0,9.0,62,0.00,,---,0.00,VWS V14.01,2013-04-29 17:46:00,
2013-04-29 14:01:00,67.5,53.6,29.92,South,180,10.0,12.0,61,0.00,,---,0.00,VWS V14.01,2013-04-29 18:01:00,
2013-04-29 14:16:00,67.6,54.6,29.91,South,184,3.0,12.0,63,0.00,,---,0.00,VWS V14.01,2013-04-29 18:16:00,
2013-04-29 14:31:00,67.3,53.4,29.91,SSE,163,4.0,11.0,61,0.00,,---,0.00,VWS V14.01,2013-04-29 18:31:00,
2013-04-29 14:46:00,68.0,53.6,29.91,SSW,198,4.0,12.0,60,0.00,,---,0.00,VWS V14.01,2013-04-29 18:46:00,
2013-04-29 15:01:00,68.0,54.1,29.91,SW,215,3.0,11.0,61,0.00,,---,0.00,VWS V14.01,2013-04-29 19:01:00,
2013-04-29 15:16:00,68.0,54.5,29.90,South,190,5.0,12.0,62,0.00,,---,0.00,VWS V14.01,2013-04-29 19:16:00,
2013-04-29 15:31:00,68.1,53.2,29.90,WSW,242,1.0,13.0,59,0.00,,---,0.00,VWS V14.01,2013-04-29 19:31:00,
2013-04-29 15:46:00,68.7,53.3,29.90,South,190,6.0,15.0,58,0.00,,---,0.00,VWS V14.01,2013-04-29 19:46:00,
2013-04-29 16:01:00,68.2,53.8,29.90,SSW,205,7.0,13.0,60,0.00,,---,0.00,VWS V14.01,2013-04-29 20:01:00,
2013-04-29 16:16:00,68.4,54.0,29.88,SE,142,4.0,11.0,60,0.00,,---,0.00,VWS V14.01,2013-04-29 20:16:00,
2013-04-29 16:31:00,68.0,52.7,29.88,SSW,204,4.0,12.0,58,0.00,,---,0.00,VWS V14.01,2013-04-29 20:31:00,
2013-04-29 16:46:00,68.4,53.5,29.88,SSE,161,7.0,13.0,59,0.00,,---,0.00,VWS V14.01,2013-04-29 20:46:00,
2013-04-29 17:01:00,68.3,53.9,29.88,South,171,1.0,15.0,60,0.00,,---,0.00,VWS V14.01,2013-04-29 21:01:00,
2013-04-29 17:16:00,68.1,52.8,29.88,SSE,153,8.0,14.0,58,0.00,,---,0.00,VWS V14.01,2013-04-29 21:16:00,
2013-04-29 17:31:00,67.7,52.4,29.88,South,184,4.0,13.0,58,0.00,,---,0.00,VWS V14.01,2013-04-29 21:31:00,
2013-04-29 17:46:00,67.5,52.7,29.88,South,186,6.0,11.0,59,0.00,,---,0.00,VWS V14.01,2013-04-29 21:46:00,
2013-04-29 18:01:00,67.6,52.3,29.88,SSE,162,4.0,14.0,58,0.00,,---,0.00,VWS V14.01,2013-04-29 22:01:00,
2013-04-29 18:16:00,67.2,52.4,29.88,South,185,3.0,12.0,59,0.00,,---,0.00,VWS V14.01,2013-04-29 22:16:00,
2013-04-29 18:31:00,67.6,53.2,29.88,SSW,197,2.0,14.0,60,0.00,,---,0.00,VWS V14.01,2013-04-29 22:31:00,
2013-04-29 18:46:00,67.6,52.8,29.88,South,175,5.0,13.0,59,0.00,,---,0.00,VWS V14.01,2013-04-29 22:46:00,
2013-04-29 19:01:00,67.5,53.1,29.87,SSW,211,5.0,11.0,60,0.00,,---,0.00,VWS V14.01,2013-04-29 23:01:00,
2013-04-29 19:16:00,67.0,53.1,29.87,SSE,149,3.0,13.0,61,0.00,,---,0.00,VWS V14.01,2013-04-29 23:16:00,
2013-04-29 19:31:00,66.9,53.5,29.87,SE,141,2.0,11.0,62,0.00,,---,0.00,VWS V14.01,2013-04-29 23:31:00,
2013-04-29 19:46:00,67.0,53.1,29.86,SSE,150,5.0,11.0,61,0.00,,---,0.00,VWS V14.01,2013-04-29 23:46:00,
2013-04-29 20:01:00,66.3,52.9,29.87,SE,132,9.0,11.0,62,0.00,,---,0.00,VWS V14.01,2013-04-30 00:01:00,
2013-04-29 20:16:00,65.8,53.3,29.87,SSE,163,3.0,10.0,64,0.00,,---,0.00,VWS V14.01,2013-04-30 00:16:00,
2013-04-29 20:31:00,65.3,52.8,29.86,SSE,159,7.0,11.0,64,0.00,,---,0.00,VWS V14.01,2013-04-30 00:31:00,
2013-04-29 20:46:00,64.8,53.2,29.86,South,183,5.0,10.0,66,0.00,,---,0.00,VWS V14.01,2013-04-30 00:46:00,
2013-04-29 21:01:00,64.2,53.0,29.87,South,169,2.0,9.0,67,0.00,,---,0.00,VWS V14.01,2013-04-30 01:01:00,
2013-04-29 21:16:00,63.7,53.0,29.87,SSW,202,5.0,11.0,68,0.00,,---,0.00,VWS V14.01,2013-04-30 01:16:00,
2013-04-29 21:31:00,63.5,53.2,29.87,SSE,151,6.0,13.0,69,0.00,,---,0.00,VWS V14.01,2013-04-30 01:31:00,
2013-04-29 21:46:00,63.2,53.3,29.88,SE,140,5.0,10.0,70,0.00,,---,0.00,VWS V14.01,2013-04-30 01:46:00,
2013-04-29 22:01:00,62.8,53.3,29.88,SSW,193,3.0,8.0,71,0.00,,---,0.00,VWS V14.01,2013-04-30 02:01:00,
2013-04-29 22:16:00,62.5,53.7,29.89,South,174,1.0,9.0,73,0.00,,---,0.00,VWS V14.01,2013-04-30 02:16:00,
2013-04-29 22:31:00,62.2,53.5,29.88,SSE,167,4.0,11.0,73,0.00,,---,0.00,VWS V14.01,2013-04-30 02:31:00,
2013-04-29 22:46:00,61.8,53.4,29.88,SE,139,5.0,14.0,74,0.00,,---,0.00,VWS V14.01,2013-04-30 02:46:00,
2013-04-29 23:01:00,61.6,53.6,29.88,SSE,153,5.0,14.0,75,0.00,,---,0.00,VWS V14.01,2013-04-30 03:01:00,
2013-04-29 23:16:00,61.2,53.2,29.88,SSE,156,3.0,13.0,75,0.00,,---,0.00,VWS V14.01,2013-04-30 03:16:00,
2013-04-29 23:31:00,61.0,53.4,29.88,ESE,111,10.0,12.0,76,0.00,,---,0.00,VWS V14.01,2013-04-30 03:31:00,
2013-04-29 23:46:00,60.7,53.1,29.88,SSW,197,5.0,13.0,76,0.00,,---,0.00,VWS V14.01,2013-04-30 03:46:00,